Time;durP1;ratioP1;P1;durP2;ratioP2;P2;SDS_P1;SDS_P2;PMS_P1;PMS_P2;Temp;Humidity;BMP_temperature;BMP_pressure;BME280_temperature;BME280_humidity;BME280_pressure;Samples;Min_cycle;Max_cycle;Signal;HPM_P1;HPM_P2
2021/05/14 00:00:25;;;;;;;7.45;5.40;;;384.40;2073.60;;;;;;5090667;28;20024;-66
2021/05/14 00:02:51;;;;;;;8.60;5.43;;;384.20;2124.80;;;;;;5090645;28;20477;-67
2021/05/14 00:05:17;;;;;;;5.10;3.45;;;384.20;2124.80;;;;;;5090169;28;20073;-65
2021/05/14 00:07:43;;;;;;;5.97;3.67;;;384.20;2099.20;;;;;;5090339;28;20048;-64
2021/05/14 00:10:09;;;;;;;6.68;2.88;;;384.20;2124.80;;;;;;5090458;28;20132;-67
2021/05/14 00:12:35;;;;;;;5.20;2.78;;;384.20;2150.40;;;;;;5090167;28;20424;-66
2021/05/14 00:15:02;;;;;;;4.68;2.28;;;384.30;2099.20;;;;;;5090350;28;20032;-65
2021/05/14 00:17:28;;;;;;;4.50;2.20;;;384.20;2124.80;;;;;;5090473;28;20029;-66
2021/05/14 00:19:53;;;;;;;4.97;2.20;;;384.10;2150.40;;;;;;5090354;28;20024;-67
2021/05/14 00:22:19;;;;;;;4.40;2.85;;;384.10;2099.20;;;;;;5090375;28;20031;-67
2021/05/14 00:24:46;;;;;;;5.05;2.00;;;384.20;2099.20;;;;;;5090081;28;20032;-66
2021/05/14 00:27:12;;;;;;;3.05;1.83;;;384.10;2124.80;;;;;;5089812;28;20058;-64
2021/05/14 00:29:38;;;;;;;7.47;2.67;;;384.10;2099.20;;;;;;5090025;28;20020;-66
2021/05/14 00:32:04;;;;;;;5.97;2.75;;;384.10;2124.80;;;;;;5089957;28;20056;-66
2021/05/14 00:34:29;;;;;;;3.92;2.38;;;384.10;2124.80;;;;;;5090321;28;20064;-68
2021/05/14 00:36:55;;;;;;;5.03;2.35;;;384.10;2124.80;;;;;;5090204;28;20565;-63
2021/05/14 00:39:21;;;;;;;5.75;2.85;;;384.10;2124.80;;;;;;5090079;28;20020;-65
2021/05/14 00:41:47;;;;;;;4.80;3.38;;;384.10;2150.40;;;;;;5092817;28;20059;-66
2021/05/14 00:44:32;;;;;;;17.27;14.73;;;384.10;2176.00;;;;;;5094013;28;20055;-65
2021/05/14 00:46:59;;;;;;;7.35;4.18;;;384.10;2150.40;;;;;;5093932;28;20043;-65
2021/05/14 00:49:26;;;;;;;6.15;4.45;;;384.10;2150.40;;;;;;5094155;28;20032;-66
2021/05/14 00:51:53;;;;;;;4.82;3.03;;;384.10;2176.00;;;;;;5094116;28;20373;-65
2021/05/14 00:54:19;;;;;;;11.45;3.97;;;384.00;2176.00;;;;;;5094142;28;20060;-66
2021/05/14 00:56:45;;;;;;;6.25;2.72;;;359.30;2176.00;;;;;;5093927;28;20110;-68
2021/05/14 00:59:11;;;;;;;4.70;2.58;;;359.30;2176.00;;;;;;5093898;28;20474;-65
2021/05/14 01:01:37;;;;;;;3.80;2.63;;;359.30;2201.60;;;;;;5094032;28;20020;-65
2021/05/14 01:04:03;;;;;;;4.45;2.80;;;359.20;2201.60;;;;;;5094007;28;20024;-65
2021/05/14 01:06:28;;;;;;;6.32;3.63;;;359.10;2201.60;;;;;;5094181;28;20020;-65
2021/05/14 01:08:59;;;;;;;6.78;2.95;;;359.10;2176.00;;;;;;5095390;28;20402;-64
2021/05/14 01:11:25;;;;;;;4.63;2.35;;;359.20;2176.00;;;;;;5103456;28;20428;-65
2021/05/14 01:13:51;;;;;;;6.20;2.30;;;359.10;2176.00;;;;;;5103133;28;20087;-66
2021/05/14 01:16:17;;;;;;;4.78;2.75;;;359.20;2176.00;;;;;;5102783;28;20032;-65
2021/05/14 01:18:42;;;;;;;4.50;2.45;;;359.10;2176.00;;;;;;5101547;28;20972;-68
2021/05/14 01:21:08;;;;;;;4.15;2.22;;;359.10;2176.00;;;;;;5100898;28;20023;-64
2021/05/14 01:23:34;;;;;;;5.22;2.38;;;359.00;2227.20;;;;;;5095127;28;20020;-65
2021/05/14 01:26:00;;;;;;;4.20;2.60;;;359.00;2176.00;;;;;;5093415;28;20016;-64
2021/05/14 01:28:26;;;;;;;6.47;4.82;;;359.10;2227.20;;;;;;5093239;28;20104;-65
2021/05/14 01:30:53;;;;;;;6.20;5.22;;;359.00;2252.80;;;;;;5093479;28;20473;-66
2021/05/14 01:33:19;;;;;;;7.65;2.97;;;359.00;2227.20;;;;;;5093367;28;20077;-65
2021/05/14 01:35:46;;;;;;;6.97;3.05;;;359.00;2227.20;;;;;;5093018;28;20036;-67
2021/05/14 01:38:12;;;;;;;4.57;3.10;;;359.00;2227.20;;;;;;5093469;28;20016;-66
2021/05/14 01:40:38;;;;;;;7.10;2.63;;;359.00;2252.80;;;;;;5093355;28;20050;-67
2021/05/14 01:43:04;;;;;;;5.38;2.92;;;359.00;2252.80;;;;;;5092838;28;20020;-65
2021/05/14 01:45:30;;;;;;;4.97;2.55;;;359.00;2227.20;;;;;;5093035;28;20042;-66
2021/05/14 01:47:55;;;;;;;6.18;2.95;;;358.90;2278.40;;;;;;5093076;28;20040;-66
2021/05/14 01:50:21;;;;;;;5.60;2.83;;;358.90;2278.40;;;;;;5093195;28;20103;-64
2021/05/14 01:52:47;;;;;;;6.18;2.97;;;358.70;2329.60;;;;;;5092740;28;20016;-65
2021/05/14 01:55:13;;;;;;;6.57;2.88;;;358.50;2329.60;;;;;;5092722;28;20039;-63
2021/05/14 01:57:39;;;;;;;10.48;2.85;;;358.60;2329.60;;;;;;5092878;28;20099;-64
2021/05/14 02:00:07;;;;;;;5.70;2.72;;;358.50;2329.60;;;;;;5092809;28;20116;-67
2021/05/14 02:02:33;;;;;;;5.50;2.40;;;358.50;2329.60;;;;;;5092964;28;20028;-65
2021/05/14 02:04:58;;;;;;;4.57;3.10;;;358.50;2329.60;;;;;;5093094;28;20497;-65
2021/05/14 02:07:24;;;;;;;6.03;2.88;;;358.50;2329.60;;;;;;5092647;28;20048;-65
2021/05/14 02:09:52;;;;;;;5.13;2.70;;;358.50;2329.60;;;;;;5092730;28;20039;-65
2021/05/14 02:12:17;;;;;;;4.78;2.58;;;333.70;2329.60;;;;;;5092484;28;20023;-64
2021/05/14 02:14:43;;;;;;;7.05;3.15;;;333.60;2329.60;;;;;;5092231;28;20032;-65
2021/05/14 02:17:09;;;;;;;4.78;2.63;;;333.60;2329.60;;;;;;5092351;28;20043;-62
2021/05/14 02:19:35;;;;;;;6.00;2.47;;;333.60;2329.60;;;;;;5092448;28;20028;-64
2021/05/14 02:22:02;;;;;;;6.25;2.80;;;333.40;2329.60;;;;;;5092515;28;20060;-64
2021/05/14 02:24:28;;;;;;;6.38;4.68;;;333.40;2329.60;;;;;;5092573;28;20016;-64
2021/05/14 02:26:54;;;;;;;4.28;2.90;;;333.40;2329.60;;;;;;5092316;28;20428;-64
2021/05/14 02:29:20;;;;;;;5.22;2.67;;;333.40;2329.60;;;;;;5092372;28;20027;-64
2021/05/14 02:31:46;;;;;;;4.47;2.47;;;333.40;2329.60;;;;;;5091921;28;20032;-65
2021/05/14 02:34:11;;;;;;;5.65;2.92;;;333.30;2329.60;;;;;;5092226;28;20024;-62
2021/05/14 02:36:37;;;;;;;10.13;2.72;;;333.30;2329.60;;;;;;5091844;28;20032;-69
2021/05/14 02:39:06;;;;;;;7.28;2.75;;;333.30;2329.60;;;;;;5092064;28;20028;-69
2021/05/14 02:41:31;;;;;;;4.07;2.45;;;333.30;2329.60;;;;;;5092096;28;20386;-69
2021/05/14 02:43:57;;;;;;;5.70;2.72;;;333.20;2329.60;;;;;;5091838;28;20017;-69
2021/05/14 02:46:23;;;;;;;4.55;2.58;;;333.30;2329.60;;;;;;5091477;28;20040;-65
2021/05/14 02:48:49;;;;;;;5.85;2.30;;;333.20;2329.60;;;;;;5091949;28;20036;-67
2021/05/14 02:51:14;;;;;;;3.22;2.20;;;333.20;2329.60;;;;;;5091838;28;20122;-67
2021/05/14 02:53:40;;;;;;;4.70;2.60;;;333.20;2329.60;;;;;;5091909;28;20020;-64
2021/05/14 02:56:06;;;;;;;6.00;3.05;;;333.20;2329.60;;;;;;5091716;28;20058;-65
2021/05/14 02:58:31;;;;;;;5.03;2.45;;;333.30;2329.60;;;;;;5091742;28;20462;-67
2021/05/14 03:00:57;;;;;;;5.35;2.70;;;333.20;2329.60;;;;;;5091807;28;20020;-67
2021/05/14 03:03:23;;;;;;;7.97;5.78;;;333.20;2329.60;;;;;;5091225;28;20050;-66
2021/05/14 03:05:49;;;;;;;4.78;2.90;;;333.20;2329.60;;;;;;5091684;28;20048;-68
2021/05/14 03:08:14;;;;;;;5.70;3.08;;;333.20;2329.60;;;;;;5091284;28;20371;-66
2021/05/14 03:10:40;;;;;;;6.55;2.97;;;333.10;2329.60;;;;;;5091673;28;20028;-68
2021/05/14 03:13:06;;;;;;;5.90;4.35;;;333.10;2329.60;;;;;;5091265;28;20042;-69
2021/05/14 03:15:32;;;;;;;10.27;4.85;;;333.10;2329.60;;;;;;5091120;28;20448;-64
2021/05/14 03:17:57;;;;;;;7.97;4.32;;;333.10;2329.60;;;;;;5091428;28;20470;-69
2021/05/14 03:20:23;;;;;;;9.00;3.97;;;333.10;2329.60;;;;;;5090954;28;20376;-65
2021/05/14 03:22:49;;;;;;;6.63;3.42;;;333.10;2329.60;;;;;;5091243;28;20032;-68
2021/05/14 03:25:15;;;;;;;6.32;3.22;;;333.10;2329.60;;;;;;5091216;28;20036;-66
2021/05/14 03:27:40;;;;;;;5.82;3.92;;;333.10;2329.60;;;;;;5091208;28;20028;-65
2021/05/14 03:30:07;;;;;;;10.20;4.68;;;333.10;2329.60;;;;;;5090850;28;20027;-67
2021/05/14 03:32:33;;;;;;;11.70;4.40;;;333.00;2329.60;;;;;;5090972;28;20023;-65
2021/05/14 03:34:59;;;;;;;10.85;3.85;;;333.00;2329.60;;;;;;5091205;28;20028;-65
2021/05/14 03:37:25;;;;;;;6.10;2.75;;;333.00;2329.60;;;;;;5091104;28;20393;-66
2021/05/14 03:39:53;;;;;;;8.50;3.42;;;333.00;2329.60;;;;;;5090912;28;20492;-67
2021/05/14 03:42:25;;;;;;;8.48;3.88;;;332.90;2329.60;;;;;;5090982;28;20012;-67
2021/05/14 03:44:52;;;;;;;11.05;7.57;;;332.90;2329.60;;;;;;5090810;28;20120;-66
2021/05/14 03:47:18;;;;;;;5.93;4.70;;;333.10;2329.60;;;;;;5090232;28;20497;-68
2021/05/14 03:49:45;;;;;;;11.43;5.22;;;333.20;2329.60;;;;;;5090488;28;20036;-66
2021/05/14 03:52:12;;;;;;;6.95;3.00;;;333.20;2329.60;;;;;;5090696;28;20020;-65
2021/05/14 03:54:39;;;;;;;3.25;2.00;;;333.10;2329.60;;;;;;5090097;28;20496;-64
2021/05/14 03:57:05;;;;;;;7.35;2.13;;;333.20;2329.60;;;;;;5090184;28;20028;-65
2021/05/14 03:59:31;;;;;;;4.93;2.17;;;333.30;2329.60;;;;;;5090611;28;20024;-65
2021/05/14 04:01:58;;;;;;;6.05;2.60;;;333.40;2329.60;;;;;;5090718;28;20027;-65
2021/05/14 04:04:24;;;;;;;3.35;2.20;;;333.50;2329.60;;;;;;5090260;28;20028;-68
2021/05/14 04:06:51;;;;;;;3.58;2.45;;;333.70;2329.60;;;;;;5090724;28;20097;-66
2021/05/14 04:09:24;;;;;;;6.13;2.50;;;333.60;2329.60;;;;;;5090277;28;20463;-63
2021/05/14 04:14:30;;;;;;;4.45;2.30;;;358.40;2329.60;;;;;;5090234;28;20032;-65
2021/05/14 04:16:57;;;;;;;6.65;2.22;;;358.60;2304.00;;;;;;5089778;28;20027;-64
2021/05/14 04:19:24;;;;;;;5.75;2.40;;;358.70;2304.00;;;;;;5090498;28;20108;-64
2021/05/14 04:21:52;;;;;;;5.45;1.80;;;358.90;2252.80;;;;;;5090301;28;20036;-68
2021/05/14 04:24:18;;;;;;;3.40;1.70;;;359.10;2176.00;;;;;;5090137;28;20025;-67
2021/05/14 04:26:43;;;;;;;4.50;1.98;;;359.30;2176.00;;;;;;5090150;28;20031;-64
2021/05/14 04:29:09;;;;;;;6.00;1.70;;;384.00;2124.80;;;;;;5090439;28;20153;-66
2021/05/14 04:31:35;;;;;;;6.13;2.88;;;384.40;2099.20;;;;;;5090045;28;20028;-67
2021/05/14 04:34:00;;;;;;;7.20;3.20;;;384.90;2048.00;;;;;;5090317;28;20031;-67
2021/05/14 04:36:26;;;;;;;6.80;3.42;;;384.60;2124.80;;;;;;5090120;28;20466;-68
2021/05/14 04:38:52;;;;;;;5.80;3.30;;;384.60;2124.80;;;;;;5090443;28;20012;-68
2021/05/14 04:41:18;;;;;;;4.15;2.55;;;384.80;2099.20;;;;;;5089727;28;20111;-68
2021/05/14 04:43:43;;;;;;;7.78;2.70;;;384.90;2073.60;;;;;;5089886;28;20020;-67
2021/05/14 04:46:09;;;;;;;4.60;1.80;;;409.60;2048.00;;;;;;5089796;28;20044;-68
2021/05/14 04:48:35;;;;;;;7.07;3.92;;;410.00;2022.40;;;;;;5090015;28;20093;-67
2021/05/14 04:51:01;;;;;;;5.38;2.75;;;461.10;1894.40;;;;;;5090033;28;20020;-67
2021/05/14 04:53:31;;;;;;;5.22;3.80;;;461.40;1792.00;;;;;;5089790;28;20035;-66
2021/05/14 04:55:57;;;;;;;4.65;4.10;;;563.40;1510.40;;;;;;5089798;28;20050;-67
2021/05/14 04:58:22;;;;;;;6.00;2.30;;;640.20;1203.20;;;;;;5089923;28;20020;-68
2021/05/14 05:00:48;;;;;;;4.10;2.35;;;589.50;1305.60;;;;;;5090111;28;20051;-68
2021/05/14 05:03:14;;;;;;;4.13;2.33;;;538.20;1484.80;;;;;;5089619;28;20024;-68
2021/05/14 05:05:40;;;;;;;5.70;2.70;;;512.40;1536.00;;;;;;5089911;28;20052;-69
2021/05/14 05:08:06;;;;;;;4.75;2.33;;;487.00;1664.00;;;;;;5089647;28;20040;-68
2021/05/14 05:10:31;;;;;;;5.03;2.45;;;486.40;1740.80;;;;;;5089843;28;20023;-68
2021/05/14 05:12:57;;;;;;;4.15;2.55;;;461.50;1792.00;;;;;;5089722;28;20024;-69
2021/05/14 05:15:23;;;;;;;6.45;2.97;;;461.40;1792.00;;;;;;5089818;28;20032;-66
2021/05/14 05:17:49;;;;;;;7.45;2.60;;;461.60;1792.00;;;;;;5089890;28;20028;-66
2021/05/14 05:20:14;;;;;;;5.60;2.60;;;461.50;1766.40;;;;;;5089179;28;20024;-67
2021/05/14 05:22:40;;;;;;;9.00;3.85;;;461.70;1740.80;;;;;;5089629;28;20028;-66
2021/05/14 05:25:06;;;;;;;7.15;2.92;;;589.20;1331.20;;;;;;5089582;28;20031;-64
2021/05/14 05:27:32;;;;;;;9.73;2.97;;;564.10;1356.80;;;;;;5092148;28;20051;-69
2021/05/14 05:29:58;;;;;;;4.72;2.83;;;589.40;1280.00;;;;;;5093252;28;20056;-66
2021/05/14 05:32:23;;;;;;;7.10;2.40;;;564.00;1433.60;;;;;;5092903;28;20115;-66
2021/05/14 05:34:49;;;;;;;8.13;2.83;;;563.50;1408.00;;;;;;5093208;28;20042;-66
2021/05/14 05:37:15;;;;;;;5.40;4.03;;;537.80;1484.80;;;;;;5093058;28;20028;-67
2021/05/14 05:39:41;;;;;;;20.35;4.25;;;512.60;1536.00;;;;;;5093234;28;20028;-67
2021/05/14 05:42:06;;;;;;;6.32;2.80;;;512.10;1561.60;;;;;;5093008;28;20059;-66
2021/05/14 05:44:32;;;;;;;8.02;2.75;;;487.10;1612.80;;;;;;5093084;28;20466;-70
2021/05/14 05:46:58;;;;;;;8.40;2.90;;;487.00;1638.40;;;;;;5092541;28;20047;-68
2021/05/14 05:49:24;;;;;;;5.15;2.33;;;487.00;1689.60;;;;;;5092802;28;20032;-67
2021/05/14 05:51:50;;;;;;;4.85;2.65;;;486.70;1689.60;;;;;;5092994;28;20027;-68
2021/05/14 05:54:16;;;;;;;6.50;2.78;;;486.60;1740.80;;;;;;5092661;28;20458;-66
2021/05/14 05:56:45;;;;;;;4.93;3.45;;;486.70;1792.00;;;;;;5092977;28;20036;-65
2021/05/14 05:59:14;;;;;;;5.32;2.80;;;486.70;1792.00;;;;;;5092756;28;20016;-68
2021/05/14 06:01:40;;;;;;;5.03;2.28;;;486.70;1792.00;;;;;;5092642;28;20464;-65
2021/05/14 06:04:06;;;;;;;6.50;2.88;;;486.80;1792.00;;;;;;5092680;28;20390;-60
2021/05/14 06:06:32;;;;;;;6.28;2.65;;;487.00;1792.00;;;;;;5092831;28;20028;-61
2021/05/14 06:08:58;;;;;;;6.15;2.47;;;486.80;1817.60;;;;;;5092557;28;20020;-66
2021/05/14 06:11:23;;;;;;;5.88;2.67;;;512.00;1715.20;;;;;;5092599;28;20039;-61
2021/05/14 06:13:49;;;;;;;5.00;2.15;;;487.30;1715.20;;;;;;5092466;28;20048;-64
2021/05/14 06:16:17;;;;;;;11.40;2.65;;;512.20;1715.20;;;;;;5092141;28;20395;-66
2021/05/14 06:18:46;;;;;;;8.77;2.80;;;512.40;1715.20;;;;;;5092253;28;20039;-62
2021/05/14 06:21:12;;;;;;;4.25;2.70;;;537.80;1664.00;;;;;;5092071;28;20021;-62
2021/05/14 06:23:38;;;;;;;6.00;2.30;;;589.50;1408.00;;;;;;5092305;28;20026;-59
2021/05/14 06:26:03;;;;;;;4.43;2.70;;;615.30;1280.00;;;;;;5091861;28;20074;-60
2021/05/14 06:28:29;;;;;;;4.80;3.80;;;691.80;1126.40;;;;;;5091929;28;20062;-56
2021/05/14 06:30:55;;;;;;;7.13;2.88;;;743.10;1024.00;;;;;;5091997;28;20127;-58
2021/05/14 06:33:21;;;;;;;3.80;2.38;;;743.00;1024.00;;;;;;5091827;28;20027;-58
2021/05/14 06:35:49;;;;;;;4.28;2.17;;;717.20;1049.60;;;;;;5091865;28;20064;-58
2021/05/14 06:38:14;;;;;;;6.78;4.05;;;666.30;1126.40;;;;;;5090870;28;20047;-59
2021/05/14 06:40:40;;;;;;;10.73;5.80;;;640.40;1075.20;;;;;;5092056;28;20079;-56
2021/05/14 06:43:06;;;;;;;9.88;6.05;;;589.50;1177.60;;;;;;5090356;28;20432;-57
2021/05/14 06:45:32;;;;;;;11.80;7.80;;;589.10;1203.20;;;;;;5091707;28;20203;-57
2021/05/14 06:48:02;;;;;;;9.98;5.88;;;588.90;1228.80;;;;;;5091638;28;20097;-57
2021/05/14 06:50:28;;;;;;;8.77;4.15;;;588.80;1254.40;;;;;;5091656;28;20078;-58
2021/05/14 06:52:54;;;;;;;10.48;6.40;;;563.90;1356.80;;;;;;5091654;28;20024;-58
2021/05/14 06:55:20;;;;;;;3.75;2.35;;;563.40;1382.40;;;;;;5091757;28;20376;-57
2021/05/14 06:57:45;;;;;;;11.00;2.58;;;563.20;1331.20;;;;;;5091423;28;20024;-57
2021/05/14 07:00:12;;;;;;;10.10;3.63;;;563.50;1356.80;;;;;;5091488;28;20421;-57
2021/05/14 07:02:38;;;;;;;7.65;4.10;;;563.80;1408.00;;;;;;5091222;28;20016;-57
2021/05/14 07:05:04;;;;;;;9.63;4.55;;;564.00;1408.00;;;;;;5091287;28;20069;-57
2021/05/14 07:07:31;;;;;;;9.60;4.22;;;564.10;1408.00;;;;;;5091642;28;20032;-59
2021/05/14 07:09:57;;;;;;;5.53;3.90;;;564.10;1382.40;;;;;;5091200;28;20103;-57
2021/05/14 07:12:22;;;;;;;7.45;3.90;;;564.00;1408.00;;;;;;5091134;28;20116;-59
2021/05/14 07:14:49;;;;;;;5.22;3.58;;;563.80;1408.00;;;;;;5091692;28;20040;-57
2021/05/14 07:17:15;;;;;;;8.45;4.25;;;563.80;1408.00;;;;;;5091387;28;20036;-57
2021/05/14 07:19:40;;;;;;;8.65;4.28;;;563.80;1408.00;;;;;;5091497;28;20393;-59
2021/05/14 07:22:06;;;;;;;5.45;3.33;;;563.80;1433.60;;;;;;5090878;28;20035;-59
2021/05/14 07:24:32;;;;;;;7.00;3.72;;;563.60;1433.60;;;;;;5090291;28;20020;-61
2021/05/14 07:26:59;;;;;;;10.05;4.22;;;563.40;1484.80;;;;;;5091620;28;20035;-65
2021/05/14 07:29:24;;;;;;;4.97;2.85;;;563.30;1459.20;;;;;;5091024;28;20024;-60
2021/05/14 07:31:50;;;;;;;3.63;2.35;;;537.80;1433.60;;;;;;5091093;28;20111;-59
2021/05/14 07:34:16;;;;;;;5.50;2.63;;;537.90;1408.00;;;;;;5090816;28;20379;-61
2021/05/14 07:36:41;;;;;;;7.60;3.28;;;538.30;1382.40;;;;;;5091001;28;20410;-60
2021/05/14 07:39:07;;;;;;;6.20;3.22;;;538.50;1408.00;;;;;;5090826;28;20021;-59
2021/05/14 07:41:33;;;;;;;7.45;3.47;;;563.30;1408.00;;;;;;5090452;28;20027;-59
2021/05/14 07:43:58;;;;;;;6.00;2.90;;;563.60;1433.60;;;;;;5090964;28;20028;-59
2021/05/14 07:46:25;;;;;;;7.20;3.35;;;563.90;1331.20;;;;;;5090086;28;20036;-62
2021/05/14 07:48:51;;;;;;;5.47;2.80;;;563.60;1356.80;;;;;;5091060;28;20028;-59
2021/05/14 07:51:16;;;;;;;7.07;2.95;;;564.10;1331.20;;;;;;5090262;28;20334;-58
2021/05/14 07:53:42;;;;;;;3.90;2.20;;;564.10;1331.20;;;;;;5090821;28;20035;-60
2021/05/14 07:56:08;;;;;;;6.18;2.70;;;589.00;1228.80;;;;;;5090347;28;20110;-59
2021/05/14 07:58:34;;;;;;;8.98;2.03;;;589.20;1228.80;;;;;;5090472;28;20024;-59
2021/05/14 08:01:00;;;;;;;3.72;1.90;;;589.20;1305.60;;;;;;5090437;28;20478;-59
2021/05/14 08:03:26;;;;;;;7.57;2.03;;;589.20;1280.00;;;;;;5090262;28;20024;-60
2021/05/14 08:05:52;;;;;;;3.80;2.45;;;589.50;1254.40;;;;;;5090832;28;20028;-58
2021/05/14 08:08:19;;;;;;;5.88;2.03;;;640.50;1075.20;;;;;;5090843;28;20023;-57
2021/05/14 08:10:46;;;;;;;6.43;2.45;;;691.70;998.40;;;;;;5090412;28;20093;-59
2021/05/14 08:13:11;;;;;;;3.78;1.67;;;666.00;1024.00;;;;;;5089791;28;20020;-56
2021/05/14 08:15:39;;;;;;;5.38;2.20;;;665.80;1100.80;;;;;;5083339;28;20551;-57
2021/05/14 08:18:05;;;;;;;5.55;2.58;;;640.70;1126.40;;;;;;5088894;28;20382;-57
2021/05/14 08:20:32;;;;;;;3.03;2.00;;;640.60;1100.80;;;;;;5089818;28;20032;-63
2021/05/14 08:22:58;;;;;;;6.72;2.53;;;665.80;1100.80;;;;;;5090001;28;20012;-60
2021/05/14 08:25:24;;;;;;;9.40;5.55;;;665.90;1049.60;;;;;;5089779;28;20077;-57
2021/05/14 08:27:49;;;;;;;10.70;7.40;;;665.60;1024.00;;;;;;5090062;28;20020;-59
2021/05/14 08:30:16;;;;;;;5.90;2.85;;;640.80;998.40;;;;;;5089878;28;20032;-57
2021/05/14 08:32:42;;;;;;;5.93;2.60;;;640.90;998.40;;;;;;5089897;28;20475;-58
2021/05/14 08:35:09;;;;;;;5.07;2.85;;;665.90;1024.00;;;;;;5090115;28;20039;-60
2021/05/14 08:37:36;;;;;;;3.28;1.95;;;666.30;998.40;;;;;;5089988;28;20024;-59
2021/05/14 08:40:04;;;;;;;5.90;3.53;;;665.90;998.40;;;;;;5090271;28;20032;-59
2021/05/14 08:42:30;;;;;;;2.70;1.70;;;640.70;1024.00;;;;;;5090188;28;20024;-59
2021/05/14 08:44:59;;;;;;;4.35;1.92;;;640.60;972.80;;;;;;5089987;28;20024;-60
2021/05/14 08:47:25;;;;;;;4.28;2.17;;;640.70;1024.00;;;;;;5089490;28;20044;-58
2021/05/14 08:49:51;;;;;;;3.47;1.70;;;640.10;1024.00;;;;;;5090223;28;20028;-59
2021/05/14 08:52:18;;;;;;;3.95;2.35;;;614.80;1049.60;;;;;;5090069;28;20044;-61
2021/05/14 08:54:46;;;;;;;2.80;1.38;;;614.80;1049.60;;;;;;5089882;28;20028;-60
2021/05/14 08:57:12;;;;;;;5.55;2.05;;;640.00;1100.80;;;;;;5089986;28;20469;-58
2021/05/14 08:59:39;;;;;;;3.47;1.48;;;640.00;1024.00;;;;;;5089822;28;20107;-60
2021/05/14 09:02:05;;;;;;;4.75;1.80;;;615.00;1024.00;;;;;;5091611;28;20444;-59
2021/05/14 09:04:33;;;;;;;5.63;1.83;;;640.10;1126.40;;;;;;5093850;28;20024;-60
2021/05/14 09:07:00;;;;;;;5.22;1.55;;;640.10;1024.00;;;;;;5094019;28;20070;-60
2021/05/14 09:09:26;;;;;;;3.33;1.35;;;640.00;1075.20;;;;;;5093903;28;20024;-59
2021/05/14 09:11:52;;;;;;;3.97;2.95;;;615.30;1126.40;;;;;;5092811;28;20111;-60
2021/05/14 09:14:47;;;;;;;3.40;1.92;;;615.20;1049.60;;;;;;5093389;28;20106;-58
2021/05/14 09:17:15;;;;;;;4.20;1.63;;;614.80;1100.80;;;;;;5093429;28;20067;-60
2021/05/14 09:19:45;;;;;;;1.85;1.48;;;614.70;1049.60;;;;;;5093674;28;20545;-58
2021/05/14 09:22:15;;;;;;;3.38;1.67;;;614.90;1152.00;;;;;;5093871;28;20048;-58
2021/05/14 09:24:45;;;;;;;3.42;1.60;;;614.80;1126.40;;;;;;5093617;28;20107;-58
2021/05/14 09:27:19;;;;;;;2.85;1.67;;;615.20;1049.60;;;;;;5093804;28;20055;-58
2021/05/14 09:29:45;;;;;;;4.43;1.80;;;615.20;998.40;;;;;;5093223;28;20470;-59
2021/05/14 09:32:23;;;;;;;7.47;1.60;;;640.20;1024.00;;;;;;5093439;28;20024;-57
2021/05/14 09:34:50;;;;;;;3.97;1.90;;;640.40;998.40;;;;;;5094128;28;20039;-62
2021/05/14 09:37:17;;;;;;;2.28;1.85;;;614.90;998.40;;;;;;5097175;28;20424;-59
2021/05/14 09:39:44;;;;;;;2.38;1.40;;;614.70;1024.00;;;;;;5100562;28;20028;-61
2021/05/14 09:42:10;;;;;;;5.35;1.95;;;614.80;1075.20;;;;;;5100238;28;20047;-59
2021/05/14 09:44:36;;;;;;;2.65;1.40;;;640.00;1100.80;;;;;;5095691;28;20032;-58
2021/05/14 09:47:03;;;;;;;3.67;1.40;;;640.60;998.40;;;;;;5097132;28;20638;-59
2021/05/14 09:49:29;;;;;;;4.80;1.80;;;640.50;998.40;;;;;;5097492;28;20214;-61
2021/05/14 09:52:04;;;;;;;2.97;1.42;;;640.50;972.80;;;;;;5095001;28;20222;-62
2021/05/14 09:54:33;;;;;;;1.92;1.30;;;640.40;972.80;;;;;;5092990;28;20398;-58
2021/05/14 09:59:55;;;;;;;3.75;1.92;;;640.90;998.40;;;;;;5092950;28;20031;-64
2021/05/14 10:02:33;;;;;;;4.20;2.20;;;665.60;972.80;;;;;;5091426;28;20474;-58
2021/05/14 10:05:01;;;;;;;1.65;1.20;;;666.00;972.80;;;;;;5091813;28;20024;-62
2021/05/14 10:07:30;;;;;;;2.40;1.45;;;666.50;947.20;;;;;;5091007;28;20020;-63
2021/05/14 10:10:00;;;;;;;3.50;1.33;;;666.50;972.80;;;;;;5091212;28;20020;-61
2021/05/14 10:12:26;;;;;;;2.35;1.30;;;666.30;972.80;;;;;;5090774;28;20478;-63
2021/05/14 10:14:52;;;;;;;2.63;1.50;;;666.30;947.20;;;;;;5090625;28;20032;-60
2021/05/14 10:17:18;;;;;;;1.10;1.02;;;666.00;972.80;;;;;;5090294;28;20024;-57
2021/05/14 10:19:46;;;;;;;2.42;1.40;;;665.60;921.60;;;;;;5090842;28;20035;-59
2021/05/14 10:22:13;;;;;;;2.85;1.67;;;640.50;921.60;;;;;;5090947;28;20032;-59
2021/05/14 10:24:47;;;;;;;1.70;1.20;;;640.50;947.20;;;;;;5090699;28;20043;-63
2021/05/14 10:27:40;;;;;;;3.30;1.50;;;640.70;972.80;;;;;;5090691;28;20394;-62
2021/05/14 10:30:07;;;;;;;4.07;2.72;;;640.40;998.40;;;;;;5047071;28;20083;-65
2021/05/14 10:32:45;;;;;;;3.15;1.73;;;640.60;1024.00;;;;;;5047588;28;20062;-58
2021/05/14 10:35:12;;;;;;;2.25;1.55;;;640.10;998.40;;;;;;5047773;28;20041;-60
2021/05/14 10:37:47;;;;;;;3.00;1.90;;;640.20;1024.00;;;;;;5047717;28;20029;-58
2021/05/14 10:40:28;;;;;;;3.83;1.67;;;640.20;998.40;;;;;;5047785;28;20392;-60
2021/05/14 10:42:58;;;;;;;5.15;1.73;;;640.30;921.60;;;;;;5047176;28;20464;-61
2021/05/14 10:45:43;;;;;;;2.58;1.65;;;640.60;947.20;;;;;;5047353;28;20044;-63
2021/05/14 10:48:17;;;;;;;4.60;1.65;;;640.90;972.80;;;;;;5047704;28;20530;-57
2021/05/14 10:50:49;;;;;;;3.28;1.60;;;665.60;972.80;;;;;;5047733;28;20156;-59
2021/05/14 10:56:09;;;;;;;4.28;2.13;;;666.40;972.80;;;;;;5030326;28;20423;-58
2021/05/14 10:58:37;;;;;;;2.80;1.80;;;691.40;947.20;;;;;;5047442;28;20082;-59
2021/05/14 11:01:04;;;;;;;4.75;1.63;;;691.30;921.60;;;;;;5047478;28;20087;-63
2021/05/14 11:03:34;;;;;;;3.50;1.63;;;666.40;921.60;;;;;;5047436;28;20025;-60
2021/05/14 11:06:11;;;;;;;3.35;1.67;;;666.10;896.00;;;;;;5049254;28;20458;-64
2021/05/14 11:08:37;;;;;;;2.78;1.30;;;666.10;947.20;;;;;;5089374;28;20024;-61
2021/05/14 11:11:09;;;;;;;3.55;1.70;;;666.10;896.00;;;;;;5090428;28;20024;-59
2021/05/14 11:13:51;;;;;;;2.55;1.58;;;666.30;896.00;;;;;;5092316;28;20042;-59
2021/05/14 11:16:43;;;;;;;3.05;1.50;;;666.20;921.60;;;;;;5092082;28;20036;-58
2021/05/14 11:19:55;;;;;;;2.55;1.20;;;666.00;870.40;;;;;;5094109;28;20036;-58
2021/05/14 11:22:37;;;;;;;14.20;3.08;;;640.90;896.00;;;;;;5094063;28;20020;-59
2021/05/14 11:25:21;;;;;;;2.55;1.45;;;640.60;921.60;;;;;;5092864;28;20074;-57
2021/05/14 11:27:52;;;;;;;2.35;1.40;;;640.40;921.60;;;;;;5090662;28;20036;-58
2021/05/14 11:30:19;;;;;;;2.92;1.30;;;640.40;947.20;;;;;;5090876;28;20028;-56
2021/05/14 11:32:46;;;;;;;1.65;1.23;;;640.20;947.20;;;;;;5090904;28;20373;-57
2021/05/14 11:35:16;;;;;;;3.05;1.65;;;640.40;972.80;;;;;;5090975;28;20068;-59
2021/05/14 11:37:53;;;;;;;1.83;1.40;;;640.60;921.60;;;;;;5091005;28;20030;-62
2021/05/14 11:40:27;;;;;;;5.28;2.70;;;640.70;947.20;;;;;;5091017;28;20116;-56
2021/05/14 11:42:55;;;;;;;3.80;1.77;;;640.90;896.00;;;;;;5090896;28;20056;-58
2021/05/14 11:45:36;;;;;;;3.85;2.75;;;665.70;998.40;;;;;;5091153;28;20081;-58
2021/05/14 11:51:24;;;;;;;3.15;2.03;;;665.60;921.60;;;;;;5092772;28;20069;-61
2021/05/14 11:53:50;;;;;;;3.15;1.67;;;640.90;896.00;;;;;;5090510;28;20031;-58
2021/05/14 11:56:16;;;;;;;5.88;2.45;;;640.60;947.20;;;;;;5090425;28;20042;-57
2021/05/14 11:58:43;;;;;;;4.70;1.63;;;640.90;921.60;;;;;;5090794;28;20038;-57
2021/05/14 12:01:09;;;;;;;17.05;4.28;;;665.70;972.80;;;;;;5090738;28;20079;-58
2021/05/14 12:03:35;;;;;;;4.82;1.40;;;665.60;947.20;;;;;;5090347;28;20249;-61
2021/05/14 12:06:06;;;;;;;5.38;1.98;;;640.70;870.40;;;;;;5090644;28;20028;-58
2021/05/14 12:08:32;;;;;;;1.58;1.30;;;640.50;998.40;;;;;;5090998;28;20019;-60
2021/05/14 12:11:03;;;;;;;2.30;1.50;;;640.50;896.00;;;;;;5090511;28;20081;-61
2021/05/14 12:13:35;;;;;;;2.35;1.40;;;640.60;972.80;;;;;;5090950;28;20113;-61
2021/05/14 12:16:06;;;;;;;1.55;1.20;;;640.20;1049.60;;;;;;5090288;28;20063;-63
2021/05/14 12:18:34;;;;;;;4.68;1.30;;;615.30;1049.60;;;;;;5096783;28;20050;-59
2021/05/14 12:21:00;;;;;;;3.65;1.50;;;615.10;1075.20;;;;;;5097037;28;20073;-60
2021/05/14 12:23:27;;;;;;;4.95;1.60;;;615.00;1075.20;;;;;;5097186;28;20052;-60
2021/05/14 12:26:02;;;;;;;4.18;1.67;;;614.90;1100.80;;;;;;5092389;28;20056;-66
2021/05/14 12:28:31;;;;;;;8.93;5.18;;;614.80;1126.40;;;;;;5090264;28;20016;-58
2021/05/14 12:30:57;;;;;;;3.88;1.83;;;614.70;1100.80;;;;;;5090322;28;20031;-63